»·PEaware :: N832PW KFUL-KGCN

N832PW :: KFUL-KGCN

FLIGHT INFORMATION

Flight Status: Arrived
Operator: Privately registered:
United States
More flights under this callsign
Pilot: Justin W. (21172)
Aircraft: PIPER PA-24 COMMANCHE
(PA24)
More flights by this aircraft type
Origin: KFUL Fullerton Mun
United States
Destination: KGCN Grand Canyon Natl Park
United States
More flights between these airports :: More routes between these airports
Route: POWUP V394 APLES V442 HEC V210 AMERE
File this flight plan on PilotEdge
Remarks:
Altitude:
(Current/Filed)
11,500ft
Speed:
(Current/Filed)
150kts
Departed: 22-May-20 04:34 PM
Arrived: 22-May-20 06:23 PM
Distance/Time
Traveled:
313nm/1:49
Distance/Time
To Go:
Arrived

Flight Plot

Page will automatically refresh every two minutes.


Map Options




Map Legend


Flown Route
Filed Route
Departure Airport
Arrival Airport
Navaid (VOR, NDB)
Fix

Horizontal Profiles

Position Reports

Time Latitude Longitude Heading Altitude Ground
Speed
22-May-20 16:15 33.871032 -117.980200 75 99ft 0kts
22-May-20 16:16 33.871032 -117.980200 75 99ft 0kts
22-May-20 16:17 33.871033 -117.980197 75 99ft 0kts
22-May-20 16:18 33.871034 -117.980194 75 99ft 0kts
22-May-20 16:19 33.871034 -117.980192 75 99ft 0kts
22-May-20 16:20 33.871034 -117.980190 75 99ft 0kts
22-May-20 16:21 33.871035 -117.980189 75 99ft 0kts
22-May-20 16:22 33.871035 -117.980187 75 99ft 0kts
22-May-20 16:23 33.871036 -117.980184 75 99ft 0kts
22-May-20 16:24 33.871037 -117.980180 75 99ft 0kts
22-May-20 16:25 33.871037 -117.980177 75 99ft 0kts
22-May-20 16:26 33.871049 -117.980134 67 99ft 3kts
22-May-20 16:27 33.872076 -117.977183 86 99ft 12kts
22-May-20 16:28 33.872590 -117.974845 43 99ft 0kts
22-May-20 16:29 33.872596 -117.974838 43 99ft 0kts
22-May-20 16:30 33.872602 -117.974830 43 99ft 0kts
22-May-20 16:31 33.872605 -117.974827 43 99ft 0kts
22-May-20 16:32 33.872608 -117.974824 43 99ft 0kts
22-May-20 16:33 33.872148 -117.979262 252 104ft 81kts
22-May-20 16:34 33.885525 -117.997301 34 1374ft 102kts
22-May-20 16:35 33.900426 -117.969163 59 2689ft 103kts
22-May-20 16:36 33.916053 -117.936024 65 3924ft 143kts
22-May-20 16:37 33.935525 -117.889753 64 3860ft 155kts
22-May-20 16:38 33.955190 -117.853565 43 5234ft 114kts
22-May-20 16:39 33.983847 -117.834255 23 6466ft 119kts
22-May-20 16:40 34.021173 -117.816368 20 7157ft 151kts
22-May-20 16:41 34.054844 -117.798627 24 8553ft 117kts
22-May-20 16:42 34.083837 -117.778338 36 9442ft 124kts
22-May-20 16:43 34.108175 -117.747462 42 10997ft 129kts
22-May-20 16:44 34.135400 -117.709248 43 11504ft 175kts
22-May-20 16:45 34.171557 -117.665201 46 11450ft 185kts
22-May-20 16:46 34.203471 -117.619705 44 11488ft 173kts
22-May-20 16:47 34.235593 -117.576362 46 11484ft 173kts
22-May-20 16:48 34.267371 -117.532473 43 11478ft 173kts
22-May-20 16:49 34.300320 -117.489688 43 11476ft 173kts
22-May-20 16:50 34.335023 -117.443685 46 11467ft 183kts
22-May-20 16:51 34.366906 -117.397715 42 11471ft 175kts
22-May-20 16:52 34.402452 -117.352535 44 11468ft 183kts
22-May-20 16:53 34.437065 -117.305117 44 11466ft 183kts
22-May-20 16:54 34.472227 -117.257880 46 11465ft 183kts
22-May-20 16:55 34.506016 -117.210080 47 11605ft 179kts
22-May-20 16:56 34.539374 -117.166935 44 11622ft 174kts
22-May-20 16:57 34.562250 -117.110592 68 11620ft 186kts
22-May-20 16:58 34.580955 -117.051605 65 11624ft 183kts
22-May-20 16:59 34.601641 -116.995456 64 11616ft 180kts
22-May-20 17:00 34.623563 -116.937964 63 11598ft 183kts
22-May-20 17:01 34.645240 -116.879423 64 11575ft 185kts
22-May-20 17:02 34.666440 -116.824382 66 11549ft 178kts
22-May-20 17:03 34.685876 -116.765111 64 11521ft 185kts
22-May-20 17:04 34.708797 -116.707176 65 11511ft 185kts
22-May-20 17:05 34.727769 -116.649145 62 11511ft 181kts
22-May-20 17:06 34.750065 -116.593583 66 11514ft 180kts
22-May-20 17:07 34.769941 -116.535450 63 11526ft 182kts
22-May-20 17:08 34.791382 -116.478314 63 11530ft 182kts
22-May-20 17:09 34.811268 -116.419026 72 11536ft 185kts
22-May-20 17:10 34.826131 -116.358286 73 11543ft 183kts
22-May-20 17:11 34.840817 -116.298290 72 11549ft 182kts
22-May-20 17:12 34.856796 -116.240160 72 11526ft 181kts
22-May-20 17:13 34.873159 -116.178932 73 11504ft 185kts
22-May-20 17:14 34.888171 -116.119474 72 11508ft 180kts
22-May-20 17:15 34.904335 -116.062192 72 11510ft 178kts
22-May-20 17:16 34.920463 -116.002677 73 11513ft 183kts
22-May-20 17:17 34.936515 -115.941450 73 11497ft 185kts
22-May-20 17:18 34.952123 -115.882948 74 11492ft 182kts
22-May-20 17:19 34.967081 -115.822939 73 11486ft 184kts
22-May-20 17:20 34.983806 -115.761185 72 11490ft 189kts
22-May-20 17:21 35.001818 -115.698830 70 11471ft 189kts
22-May-20 17:23 35.016646 -115.638699 80 11470ft 182kts
22-May-20 17:24 35.029949 -115.577993 74 11477ft 185kts
22-May-20 17:25 35.045791 -115.515206 75 11461ft 189kts
22-May-20 17:26 35.061663 -115.452739 73 11569ft 189kts
22-May-20 17:27 35.077541 -115.390820 77 11570ft 188kts
22-May-20 17:28 35.093873 -115.327660 77 11554ft 190kts
22-May-20 17:29 35.109141 -115.263963 77 11543ft 190kts
22-May-20 17:30 35.125047 -115.202355 76 11547ft 187kts
22-May-20 17:31 35.140479 -115.138796 76 11536ft 190kts
22-May-20 17:32 35.160075 -115.076689 67 11510ft 190kts
22-May-20 17:33 35.181208 -115.018855 66 11521ft 185kts
22-May-20 17:34 35.199726 -114.956948 75 11503ft 189kts
22-May-20 17:35 35.218070 -114.897774 68 11504ft 184kts
22-May-20 17:36 35.237230 -114.838996 71 11521ft 185kts
22-May-20 17:37 35.256474 -114.778824 69 11521ft 188kts
22-May-20 17:38 35.276331 -114.717192 73 11512ft 190kts
22-May-20 17:39 35.294541 -114.654707 74 11502ft 191kts
22-May-20 17:39 35.310741 -114.602370 69 11499ft 193kts
22-May-20 17:40 35.330435 -114.543019 71 11514ft 185kts
22-May-20 17:42 35.351257 -114.471920 67 11539ft 189kts
22-May-20 17:42 35.368614 -114.420246 73 11539ft 192kts
22-May-20 17:43 35.384600 -114.359709 75 11555ft 184kts
22-May-20 17:45 35.403167 -114.290440 74 11583ft 184kts
22-May-20 17:45 35.416657 -114.239829 75 11594ft 186kts
22-May-20 17:46 35.434998 -114.180941 74 11610ft 184kts
22-May-20 17:47 35.452818 -114.118640 70 11628ft 194kts
22-May-20 17:48 35.472837 -114.057742 71 11638ft 189kts
22-May-20 17:49 35.489789 -113.994690 76 11645ft 193kts
22-May-20 17:50 35.509618 -113.931714 73 11645ft 194kts
22-May-20 17:51 35.527658 -113.868342 74 11675ft 193kts
22-May-20 17:52 35.548180 -113.807623 72 11671ft 190kts
22-May-20 17:53 35.564930 -113.744195 75 11673ft 193kts
22-May-20 17:54 35.584388 -113.681038 71 11673ft 194kts
22-May-20 17:55 35.606381 -113.618832 68 11671ft 194kts
22-May-20 17:56 35.628055 -113.559261 69 11683ft 187kts
22-May-20 17:57 35.637460 -113.495685 100 11705ft 184kts
22-May-20 17:58 35.648482 -113.431719 68 11720ft 193kts
22-May-20 17:59 35.667860 -113.368840 76 11733ft 192kts
22-May-20 18:00 35.684342 -113.305077 73 11741ft 192kts
22-May-20 18:01 35.700893 -113.241518 78 11749ft 191kts
22-May-20 18:02 35.714922 -113.178027 76 11756ft 189kts
22-May-20 18:03 35.731680 -113.117821 77 11765ft 183kts
22-May-20 18:04 35.746097 -113.054309 79 11773ft 191kts
22-May-20 18:05 35.760909 -112.992736 75 11788ft 185kts
22-May-20 18:06 35.777163 -112.931385 79 11797ft 187kts
22-May-20 18:07 35.793274 -112.867741 77 11804ft 192kts
22-May-20 18:08 35.808788 -112.803115 78 11809ft 193kts
22-May-20 18:09 35.825123 -112.739320 74 11815ft 192kts
22-May-20 18:10 35.839952 -112.675980 79 11685ft 194kts
22-May-20 18:11 35.852102 -112.610796 80 11384ft 194kts
22-May-20 18:12 35.866010 -112.546526 77 11199ft 193kts
22-May-20 18:13 35.881296 -112.482404 77 10822ft 194kts
22-May-20 18:14 35.897290 -112.419168 76 10436ft 192kts
22-May-20 18:15 35.913067 -112.355850 78 9973ft 190kts
22-May-20 18:16 35.927664 -112.292722 79 9520ft 191kts
22-May-20 18:17 35.940852 -112.228992 82 8468ft 192kts
22-May-20 18:18 35.951292 -112.172751 63 7746ft 150kts
22-May-20 18:19 35.981216 -112.139725 45 7631ft 128kts
22-May-20 18:20 35.981282 -112.112414 205 7210ft 85kts
22-May-20 18:21 35.966134 -112.132506 217 6759ft 80kts
22-May-20 18:22 35.956780 -112.141882 140 6612ft 10kts
22-May-20 18:23 35.956463 -112.141423 127 6612ft 1kts
22-May-20 18:24 35.958145 -112.139096 41 6612ft 12kts
22-May-20 18:25 35.958464 -112.138483 215 6612ft 0kts
22-May-20 18:26 35.958457 -112.138490 219 6612ft 0kts
22-May-20 18:27 35.958457 -112.138490 219 6612ft 0kts

Navigation Log

Ident Type
Flight plan parsing failed, navigation log unavailable